sensor_id;sensor_type;location;lat;lon;timestamp;pressure;altitude;pressure_sealevel;temperature;humidity
49947;BME280;35839;48.662;13.300;2023-07-09T05:00:59;97823.81;;;27.95;39.57
49947;BME280;35839;48.662;13.300;2023-07-09T05:03:26;97824.81;;;27.89;40.13
49947;BME280;35839;48.662;13.300;2023-07-09T05:05:51;97828.53;;;27.88;40.48
49947;BME280;35839;48.662;13.300;2023-07-09T05:08:17;97822.91;;;28.11;40.08
49947;BME280;35839;48.662;13.300;2023-07-09T05:10:44;97829.66;;;28.14;40.02
49947;BME280;35839;48.662;13.300;2023-07-09T05:13:10;97830.66;;;28.08;41.52
49947;BME280;35839;48.662;13.300;2023-07-09T05:15:40;97828.41;;;28.22;42.27
49947;BME280;35839;48.662;13.300;2023-07-09T05:18:05;97836.66;;;28.37;41.88
49947;BME280;35839;48.662;13.300;2023-07-09T05:20:31;97838.19;;;28.87;40.86
49947;BME280;35839;48.662;13.300;2023-07-09T05:22:56;97840.22;;;29.39;39.76
49947;BME280;35839;48.662;13.300;2023-07-09T05:25:21;97834.31;;;29.48;38.69
49947;BME280;35839;48.662;13.300;2023-07-09T05:27:46;97829.34;;;29.24;39.77
49947;BME280;35839;48.662;13.300;2023-07-09T05:30:12;97831.78;;;29.26;40.04
49947;BME280;35839;48.662;13.300;2023-07-09T05:32:37;97832.31;;;29.70;39.59
49947;BME280;35839;48.662;13.300;2023-07-09T05:35:03;97827.50;;;29.77;39.91
49947;BME280;35839;48.662;13.300;2023-07-09T05:37:29;97834.59;;;30.04;39.23
49947;BME280;35839;48.662;13.300;2023-07-09T05:39:55;97828.44;;;30.19;39.06
49947;BME280;35839;48.662;13.300;2023-07-09T05:42:20;97840.88;;;28.87;41.29
49947;BME280;35839;48.662;13.300;2023-07-09T05:44:45;97845.00;;;28.63;42.03
49947;BME280;35839;48.662;13.300;2023-07-09T05:47:11;97846.69;;;28.74;41.94
49947;BME280;35839;48.662;13.300;2023-07-09T05:49:38;97841.94;;;28.54;42.32
49947;BME280;35839;48.662;13.300;2023-07-09T05:52:03;97846.09;;;28.67;41.23
49947;BME280;35839;48.662;13.300;2023-07-09T05:54:29;97849.56;;;28.62;40.33
49947;BME280;35839;48.662;13.300;2023-07-09T05:56:54;97848.13;;;28.82;39.89
49947;BME280;35839;48.662;13.300;2023-07-09T05:59:19;97851.09;;;28.85;39.43
49947;BME280;35839;48.662;13.300;2023-07-09T06:01:45;97844.19;;;28.94;39.28
49947;BME280;35839;48.662;13.300;2023-07-09T06:04:10;97835.94;;;30.01;37.64
49947;BME280;35839;48.662;13.300;2023-07-09T06:06:38;97842.47;;;30.11;36.86
49947;BME280;35839;48.662;13.300;2023-07-09T06:09:04;97846.63;;;30.44;35.67
49947;BME280;35839;48.662;13.300;2023-07-09T06:11:29;97853.09;;;30.48;36.10
49947;BME280;35839;48.662;13.300;2023-07-09T06:13:55;97846.66;;;30.64;35.55
49947;BME280;35839;48.662;13.300;2023-07-09T06:16:20;97851.34;;;29.53;36.80
49947;BME280;35839;48.662;13.300;2023-07-09T06:18:46;97852.06;;;30.54;35.48
49947;BME280;35839;48.662;13.300;2023-07-09T06:21:11;97852.31;;;30.58;34.96
49947;BME280;35839;48.662;13.300;2023-07-09T06:23:38;97856.38;;;30.60;35.28
49947;BME280;35839;48.662;13.300;2023-07-09T06:26:03;97853.13;;;30.58;35.73
49947;BME280;35839;48.662;13.300;2023-07-09T06:28:28;97851.53;;;31.19;34.86
49947;BME280;35839;48.662;13.300;2023-07-09T06:30:54;97855.16;;;31.95;33.78
49947;BME280;35839;48.662;13.300;2023-07-09T06:33:20;97851.53;;;30.73;35.25
49947;BME280;35839;48.662;13.300;2023-07-09T06:35:49;97852.16;;;30.12;36.31
49947;BME280;35839;48.662;13.300;2023-07-09T06:38:15;97854.50;;;30.76;36.50
49947;BME280;35839;48.662;13.300;2023-07-09T06:40:41;97855.84;;;30.74;35.98
49947;BME280;35839;48.662;13.300;2023-07-09T06:43:06;97854.22;;;30.73;36.14
49947;BME280;35839;48.662;13.300;2023-07-09T06:45:32;97855.88;;;30.84;35.39
49947;BME280;35839;48.662;13.300;2023-07-09T06:47:57;97854.53;;;31.02;35.70
49947;BME280;35839;48.662;13.300;2023-07-09T06:50:23;97852.91;;;30.85;35.79
49947;BME280;35839;48.662;13.300;2023-07-09T06:52:48;97852.09;;;31.16;35.48
49947;BME280;35839;48.662;13.300;2023-07-09T06:55:13;97847.72;;;31.30;35.30
49947;BME280;35839;48.662;13.300;2023-07-09T06:57:38;97854.75;;;31.52;34.86
49947;BME280;35839;48.662;13.300;2023-07-09T07:00:04;97859.03;;;31.73;34.88
49947;BME280;35839;48.662;13.300;2023-07-09T07:02:30;97863.41;;;31.64;35.01
49947;BME280;35839;48.662;13.300;2023-07-09T07:04:55;97860.88;;;32.48;33.47
49947;BME280;35839;48.662;13.300;2023-07-09T07:07:21;97864.38;;;32.93;33.33
49947;BME280;35839;48.662;13.300;2023-07-09T07:09:46;97862.94;;;33.35;32.52
49947;BME280;35839;48.662;13.300;2023-07-09T07:12:22;97868.78;;;33.47;31.90
49947;BME280;35839;48.662;13.300;2023-07-09T07:14:48;97863.03;;;33.25;32.20
49947;BME280;35839;48.662;13.300;2023-07-09T07:17:13;97869.06;;;33.99;31.40
49947;BME280;35839;48.662;13.300;2023-07-09T07:19:39;97855.16;;;34.00;31.47
49947;BME280;35839;48.662;13.300;2023-07-09T07:22:04;97864.59;;;34.08;32.06
49947;BME280;35839;48.662;13.300;2023-07-09T07:24:32;97863.00;;;34.45;31.28
49947;BME280;35839;48.662;13.300;2023-07-09T07:26:57;97862.97;;;34.69;30.73
49947;BME280;35839;48.662;13.300;2023-07-09T07:29:22;97862.28;;;34.77;30.29
49947;BME280;35839;48.662;13.300;2023-07-09T07:31:48;97860.44;;;34.92;30.47
49947;BME280;35839;48.662;13.300;2023-07-09T07:34:13;97849.75;;;35.14;30.16
49947;BME280;35839;48.662;13.300;2023-07-09T07:36:38;97849.31;;;35.54;29.55
49947;BME280;35839;48.662;13.300;2023-07-09T07:39:04;97851.72;;;35.55;30.26
49947;BME280;35839;48.662;13.300;2023-07-09T07:41:30;97851.03;;;36.05;29.07
49947;BME280;35839;48.662;13.300;2023-07-09T07:43:55;97851.53;;;36.07;29.08
49947;BME280;35839;48.662;13.300;2023-07-09T07:46:20;97853.94;;;36.08;29.17
49947;BME280;35839;48.662;13.300;2023-07-09T07:48:46;97851.56;;;35.93;29.25
49947;BME280;35839;48.662;13.300;2023-07-09T07:51:11;97844.34;;;34.95;30.58
49947;BME280;35839;48.662;13.300;2023-07-09T07:53:36;97848.72;;;35.71;29.77
49947;BME280;35839;48.662;13.300;2023-07-09T07:56:01;97846.91;;;35.94;30.05
49947;BME280;35839;48.662;13.300;2023-07-09T07:58:28;97839.06;;;35.64;29.80
49947;BME280;35839;48.662;13.300;2023-07-09T08:00:57;97846.63;;;34.88;30.82
49947;BME280;35839;48.662;13.300;2023-07-09T08:03:23;97847.91;;;34.39;32.28
49947;BME280;35839;48.662;13.300;2023-07-09T08:05:52;97836.16;;;34.95;31.55
49947;BME280;35839;48.662;13.300;2023-07-09T08:08:17;97836.97;;;35.29;30.99
49947;BME280;35839;48.662;13.300;2023-07-09T08:10:43;97844.81;;;35.16;31.69
49947;BME280;35839;48.662;13.300;2023-07-09T08:13:08;97843.25;;;35.57;30.52
49947;BME280;35839;48.662;13.300;2023-07-09T08:15:34;97838.13;;;35.55;30.01
49947;BME280;35839;48.662;13.300;2023-07-09T08:18:00;97845.09;;;36.17;29.53
49947;BME280;35839;48.662;13.300;2023-07-09T08:20:25;97844.75;;;36.32;29.58
49947;BME280;35839;48.662;13.300;2023-07-09T08:22:50;97831.81;;;36.38;29.13
49947;BME280;35839;48.662;13.300;2023-07-09T08:25:16;97833.50;;;37.46;28.14
49947;BME280;35839;48.662;13.300;2023-07-09T08:27:41;97835.53;;;38.12;26.84
49947;BME280;35839;48.662;13.300;2023-07-09T08:30:07;97839.59;;;37.83;27.00
49947;BME280;35839;48.662;13.300;2023-07-09T08:32:32;97839.53;;;38.06;27.45
49947;BME280;35839;48.662;13.300;2023-07-09T08:34:58;97838.88;;;38.00;27.05
49947;BME280;35839;48.662;13.300;2023-07-09T08:37:23;97838.41;;;38.15;26.93
49947;BME280;35839;48.662;13.300;2023-07-09T08:39:48;97832.16;;;38.76;25.60
49947;BME280;35839;48.662;13.300;2023-07-09T08:42:20;97840.53;;;38.71;25.85
49947;BME280;35839;48.662;13.300;2023-07-09T08:50:19;97836.09;;;39.69;24.71
49947;BME280;35839;48.662;13.300;2023-07-09T08:52:48;97839.53;;;38.14;25.77
49947;BME280;35839;48.662;13.300;2023-07-09T08:55:17;97835.63;;;39.20;24.92
49947;BME280;35839;48.662;13.300;2023-07-09T08:57:45;97833.00;;;39.50;25.07
49947;BME280;35839;48.662;13.300;2023-07-09T09:00:17;97826.38;;;38.86;26.19
49947;BME280;35839;48.662;13.300;2023-07-09T09:02:50;97825.16;;;39.31;25.58
49947;BME280;35839;48.662;13.300;2023-07-09T09:05:19;97822.47;;;39.05;24.87
49947;BME280;35839;48.662;13.300;2023-07-09T09:07:50;97827.47;;;39.58;25.06
49947;BME280;35839;48.662;13.300;2023-07-09T09:10:32;97821.94;;;40.27;24.24
49947;BME280;35839;48.662;13.300;2023-07-09T09:13:09;97822.47;;;40.41;23.87
49947;BME280;35839;48.662;13.300;2023-07-09T09:15:38;97822.56;;;40.65;24.00
49947;BME280;35839;48.662;13.300;2023-07-09T09:18:23;97826.59;;;40.89;23.68
49947;BME280;35839;48.662;13.300;2023-07-09T09:21:13;97826.94;;;40.66;23.84
49947;BME280;35839;48.662;13.300;2023-07-09T09:23:46;97825.19;;;40.83;23.11
49947;BME280;35839;48.662;13.300;2023-07-09T09:26:18;97831.25;;;40.67;23.34
49947;BME280;35839;48.662;13.300;2023-07-09T09:28:47;97829.19;;;40.64;23.40
49947;BME280;35839;48.662;13.300;2023-07-09T09:31:14;97813.94;;;39.92;23.92
49947;BME280;35839;48.662;13.300;2023-07-09T09:33:45;97813.78;;;40.09;23.25
49947;BME280;35839;48.662;13.300;2023-07-09T09:36:19;97818.91;;;40.19;24.12
49947;BME280;35839;48.662;13.300;2023-07-09T09:38:45;97817.91;;;40.03;23.99
49947;BME280;35839;48.662;13.300;2023-07-09T09:41:19;97815.59;;;40.89;23.04
49947;BME280;35839;48.662;13.300;2023-07-09T09:43:46;97820.63;;;40.87;22.86
49947;BME280;35839;48.662;13.300;2023-07-09T09:46:23;97814.97;;;41.17;22.76
49947;BME280;35839;48.662;13.300;2023-07-09T09:48:52;97811.94;;;41.67;21.62
49947;BME280;35839;48.662;13.300;2023-07-09T09:51:19;97816.19;;;41.53;21.67
49947;BME280;35839;48.662;13.300;2023-07-09T09:53:48;97813.06;;;41.30;21.52
49947;BME280;35839;48.662;13.300;2023-07-09T09:56:18;97811.84;;;41.76;21.35
49947;BME280;35839;48.662;13.300;2023-07-09T09:58:44;97813.34;;;41.61;21.03
49947;BME280;35839;48.662;13.300;2023-07-09T10:01:17;97814.81;;;41.59;20.58
49947;BME280;35839;48.662;13.300;2023-07-09T10:03:43;97819.88;;;41.57;20.60
49947;BME280;35839;48.662;13.300;2023-07-09T10:06:19;97817.28;;;39.68;18.90
49947;BME280;35839;48.662;13.300;2023-07-09T10:09:27;97816.72;;;40.34;18.83
49947;BME280;35839;48.662;13.300;2023-07-09T10:12:05;97817.31;;;40.39;18.18
49947;BME280;35839;48.662;13.300;2023-07-09T10:14:49;97820.22;;;39.07;19.91
49947;BME280;35839;48.662;13.300;2023-07-09T10:17:22;97812.00;;;40.55;18.77
49947;BME280;35839;48.662;13.300;2023-07-09T10:22:43;97816.31;;;41.68;17.65
49947;BME280;35839;48.662;13.300;2023-07-09T10:30:52;97821.69;;;43.27;17.02
49947;BME280;35839;48.662;13.300;2023-07-09T10:33:39;97813.06;;;43.44;16.66
49947;BME280;35839;48.662;13.300;2023-07-09T10:39:13;97817.38;;;42.98;15.87
49947;BME280;35839;48.662;13.300;2023-07-09T10:41:40;97810.69;;;42.70;16.79
49947;BME280;35839;48.662;13.300;2023-07-09T10:44:15;97806.97;;;44.22;16.19
49947;BME280;35839;48.662;13.300;2023-07-09T10:46:43;97812.50;;;43.54;15.36
49947;BME280;35839;48.662;13.300;2023-07-09T10:49:14;97816.19;;;42.55;15.88
49947;BME280;35839;48.662;13.300;2023-07-09T10:52:22;97818.44;;;43.09;15.58
49947;BME280;35839;48.662;13.300;2023-07-09T10:55:12;97808.50;;;43.68;14.69
49947;BME280;35839;48.662;13.300;2023-07-09T10:57:46;97807.53;;;43.76;14.88
49947;BME280;35839;48.662;13.300;2023-07-09T11:00:19;97811.13;;;43.96;14.02
49947;BME280;35839;48.662;13.300;2023-07-09T11:02:48;97800.75;;;44.44;15.36
49947;BME280;35839;48.662;13.300;2023-07-09T11:05:16;97798.09;;;44.12;14.78
49947;BME280;35839;48.662;13.300;2023-07-09T11:07:48;97791.44;;;44.33;14.79
49947;BME280;35839;48.662;13.300;2023-07-09T11:10:30;97792.06;;;43.55;15.53
49947;BME280;35839;48.662;13.300;2023-07-09T11:13:04;97793.44;;;44.36;15.14
49947;BME280;35839;48.662;13.300;2023-07-09T11:15:35;97785.31;;;43.69;15.03
49947;BME280;35839;48.662;13.300;2023-07-09T11:18:04;97786.81;;;43.19;14.69
49947;BME280;35839;48.662;13.300;2023-07-09T11:20:35;97793.31;;;43.93;14.68
49947;BME280;35839;48.662;13.300;2023-07-09T11:23:15;97798.22;;;44.00;14.59
49947;BME280;35839;48.662;13.300;2023-07-09T11:25:46;97793.94;;;43.51;14.63
49947;BME280;35839;48.662;13.300;2023-07-09T11:28:12;97785.78;;;43.90;15.34
49947;BME280;35839;48.662;13.300;2023-07-09T11:30:47;97779.00;;;43.52;14.61
49947;BME280;35839;48.662;13.300;2023-07-09T11:33:26;97788.53;;;44.45;13.67
49947;BME280;35839;48.662;13.300;2023-07-09T11:35:54;97792.41;;;44.60;12.18
49947;BME280;35839;48.662;13.300;2023-07-09T11:38:44;97783.53;;;43.45;14.02
49947;BME280;35839;48.662;13.300;2023-07-09T11:41:26;97787.94;;;43.81;13.44
49947;BME280;35839;48.662;13.300;2023-07-09T11:43:52;97779.59;;;44.52;13.18
49947;BME280;35839;48.662;13.300;2023-07-09T11:46:22;97771.78;;;44.77;12.56
49947;BME280;35839;48.662;13.300;2023-07-09T11:48:49;97776.41;;;45.15;12.84
49947;BME280;35839;48.662;13.300;2023-07-09T11:51:18;97774.19;;;45.21;13.20
49947;BME280;35839;48.662;13.300;2023-07-09T11:53:55;97771.19;;;46.13;13.47
49947;BME280;35839;48.662;13.300;2023-07-09T11:56:22;97765.09;;;45.70;15.12
49947;BME280;35839;48.662;13.300;2023-07-09T11:58:58;97768.91;;;45.39;13.47
49947;BME280;35839;48.662;13.300;2023-07-09T12:01:33;97762.47;;;46.11;13.86
49947;BME280;35839;48.662;13.300;2023-07-09T12:03:59;97761.19;;;46.69;13.00
49947;BME280;35839;48.662;13.300;2023-07-09T12:06:28;97767.31;;;46.85;13.30
49947;BME280;35839;48.662;13.300;2023-07-09T12:08:55;97762.19;;;46.87;12.74
49947;BME280;35839;48.662;13.300;2023-07-09T12:11:34;97763.84;;;46.24;13.08
49947;BME280;35839;48.662;13.300;2023-07-09T12:14:03;97753.41;;;45.84;12.69
49947;BME280;35839;48.662;13.300;2023-07-09T12:16:32;97752.31;;;45.92;12.12
49947;BME280;35839;48.662;13.300;2023-07-09T12:18:58;97746.78;;;46.53;12.60
49947;BME280;35839;48.662;13.300;2023-07-09T12:21:24;97751.16;;;46.54;12.79
49947;BME280;35839;48.662;13.300;2023-07-09T12:23:51;97746.34;;;46.88;12.05
49947;BME280;35839;48.662;13.300;2023-07-09T12:26:19;97750.69;;;46.48;13.25
49947;BME280;35839;48.662;13.300;2023-07-09T12:28:57;97734.25;;;47.07;12.13
49947;BME280;35839;48.662;13.300;2023-07-09T12:31:28;97744.22;;;47.15;11.82
49947;BME280;35839;48.662;13.300;2023-07-09T12:33:55;97731.06;;;46.64;11.44
49947;BME280;35839;48.662;13.300;2023-07-09T12:36:21;97730.50;;;46.85;11.23
49947;BME280;35839;48.662;13.300;2023-07-09T12:38:50;97730.06;;;46.83;12.13
49947;BME280;35839;48.662;13.300;2023-07-09T12:41:29;97722.53;;;46.80;12.65
49947;BME280;35839;48.662;13.300;2023-07-09T12:43:55;97736.03;;;46.14;11.01
49947;BME280;35839;48.662;13.300;2023-07-09T12:46:24;97728.88;;;46.80;11.95
49947;BME280;35839;48.662;13.300;2023-07-09T12:48:50;97720.56;;;47.28;11.29
49947;BME280;35839;48.662;13.300;2023-07-09T12:51:23;97717.44;;;47.34;10.82
49947;BME280;35839;48.662;13.300;2023-07-09T12:54:14;97715.78;;;47.25;10.89
49947;BME280;35839;48.662;13.300;2023-07-09T12:56:40;97714.53;;;47.75;10.24
49947;BME280;35839;48.662;13.300;2023-07-09T12:59:16;97712.00;;;48.25;9.97
49947;BME280;35839;48.662;13.300;2023-07-09T13:01:47;97704.25;;;47.16;10.93
49947;BME280;35839;48.662;13.300;2023-07-09T13:04:13;97703.13;;;47.24;11.30
49947;BME280;35839;48.662;13.300;2023-07-09T13:06:38;97695.91;;;47.75;11.91
49947;BME280;35839;48.662;13.300;2023-07-09T13:09:13;97702.94;;;46.24;11.21
49947;BME280;35839;48.662;13.300;2023-07-09T13:11:40;97701.09;;;47.84;11.37
49947;BME280;35839;48.662;13.300;2023-07-09T13:16:46;97697.03;;;47.67;10.90
49947;BME280;35839;48.662;13.300;2023-07-09T13:19:12;97697.06;;;47.70;10.75
49947;BME280;35839;48.662;13.300;2023-07-09T13:21:38;97694.91;;;46.16;11.05
49947;BME280;35839;48.662;13.300;2023-07-09T13:24:13;97696.03;;;47.31;10.95
49947;BME280;35839;48.662;13.300;2023-07-09T13:26:38;97687.38;;;47.43;10.85
49947;BME280;35839;48.662;13.300;2023-07-09T13:29:13;97688.34;;;47.72;12.15
49947;BME280;35839;48.662;13.300;2023-07-09T13:31:39;97686.06;;;47.85;10.97
49947;BME280;35839;48.662;13.300;2023-07-09T13:34:13;97690.22;;;48.45;11.24
49947;BME280;35839;48.662;13.300;2023-07-09T13:36:41;97693.00;;;48.48;11.45
49947;BME280;35839;48.662;13.300;2023-07-09T13:39:10;97694.41;;;47.88;11.07
49947;BME280;35839;48.662;13.300;2023-07-09T13:41:35;97682.09;;;47.86;11.46
49947;BME280;35839;48.662;13.300;2023-07-09T13:44:01;97686.50;;;47.94;11.50
49947;BME280;35839;48.662;13.300;2023-07-09T13:46:26;97688.94;;;48.10;11.13
49947;BME280;35839;48.662;13.300;2023-07-09T13:48:51;97694.28;;;47.70;10.97
49947;BME280;35839;48.662;13.300;2023-07-09T13:51:20;97691.06;;;47.58;10.33
49947;BME280;35839;48.662;13.300;2023-07-09T13:53:55;97691.16;;;47.13;10.47
49947;BME280;35839;48.662;13.300;2023-07-09T13:56:24;97684.59;;;48.20;10.04
49947;BME280;35839;48.662;13.300;2023-07-09T13:58:49;97687.97;;;47.11;10.66
49947;BME280;35839;48.662;13.300;2023-07-09T14:01:21;97687.50;;;48.59;10.79
49947;BME280;35839;48.662;13.300;2023-07-09T14:03:47;97693.38;;;48.36;10.38
49947;BME280;35839;48.662;13.300;2023-07-09T14:06:14;97682.69;;;48.52;10.97
49947;BME280;35839;48.662;13.300;2023-07-09T14:08:40;97686.31;;;48.64;11.12
49947;BME280;35839;48.662;13.300;2023-07-09T14:11:14;97682.28;;;48.58;10.20
49947;BME280;35839;48.662;13.300;2023-07-09T14:13:41;97679.94;;;48.60;11.00
49947;BME280;35839;48.662;13.300;2023-07-09T14:16:10;97673.22;;;48.68;10.98
49947;BME280;35839;48.662;13.300;2023-07-09T14:18:36;97673.59;;;49.13;11.73
49947;BME280;35839;48.662;13.300;2023-07-09T14:21:25;97675.97;;;48.93;11.66
49947;BME280;35839;48.662;13.300;2023-07-09T14:23:54;97673.34;;;47.84;10.69
49947;BME280;35839;48.662;13.300;2023-07-09T14:26:19;97670.31;;;48.18;11.65
49947;BME280;35839;48.662;13.300;2023-07-09T14:28:44;97669.75;;;47.80;10.84
49947;BME280;35839;48.662;13.300;2023-07-09T14:31:20;97664.88;;;48.79;10.98
49947;BME280;35839;48.662;13.300;2023-07-09T14:33:46;97664.75;;;48.18;10.41
49947;BME280;35839;48.662;13.300;2023-07-09T14:36:12;97661.63;;;49.52;9.58
49947;BME280;35839;48.662;13.300;2023-07-09T14:38:37;97663.16;;;49.60;9.68
49947;BME280;35839;48.662;13.300;2023-07-09T14:41:14;97662.09;;;49.04;10.50
49947;BME280;35839;48.662;13.300;2023-07-09T14:43:43;97668.38;;;49.51;11.10
49947;BME280;35839;48.662;13.300;2023-07-09T14:46:08;97664.78;;;49.47;9.82
49947;BME280;35839;48.662;13.300;2023-07-09T14:48:34;97657.56;;;49.78;11.18
49947;BME280;35839;48.662;13.300;2023-07-09T14:50:59;97662.22;;;49.99;9.73
49947;BME280;35839;48.662;13.300;2023-07-09T14:53:26;97654.53;;;48.79;9.83
49947;BME280;35839;48.662;13.300;2023-07-09T14:55:53;97659.97;;;48.07;10.34
49947;BME280;35839;48.662;13.300;2023-07-09T14:58:20;97656.88;;;48.30;10.35
49947;BME280;35839;48.662;13.300;2023-07-09T15:00:46;97661.28;;;49.07;10.54
49947;BME280;35839;48.662;13.300;2023-07-09T15:03:25;97661.63;;;49.52;10.44
49947;BME280;35839;48.662;13.300;2023-07-09T15:05:52;97643.41;;;49.15;10.07
49947;BME280;35839;48.662;13.300;2023-07-09T15:08:20;97648.16;;;48.57;11.28
49947;BME280;35839;48.662;13.300;2023-07-09T15:10:47;97637.50;;;48.77;10.61
49947;BME280;35839;48.662;13.300;2023-07-09T15:15:48;97641.31;;;47.94;11.50
49947;BME280;35839;48.662;13.300;2023-07-09T15:18:15;97636.41;;;47.65;10.45
49947;BME280;35839;48.662;13.300;2023-07-09T15:20:47;97629.63;;;47.52;10.65
49947;BME280;35839;48.662;13.300;2023-07-09T15:23:13;97632.31;;;48.65;11.17
49947;BME280;35839;48.662;13.300;2023-07-09T15:25:38;97631.09;;;49.09;10.30
49947;BME280;35839;48.662;13.300;2023-07-09T15:28:03;97632.69;;;49.31;10.80
49947;BME280;35839;48.662;13.300;2023-07-09T15:30:30;97628.72;;;49.11;10.63
49947;BME280;35839;48.662;13.300;2023-07-09T15:32:58;97624.38;;;48.85;10.92
49947;BME280;35839;48.662;13.300;2023-07-09T15:35:32;97615.97;;;49.39;11.03
49947;BME280;35839;48.662;13.300;2023-07-09T15:37:58;97624.09;;;49.89;11.06
49947;BME280;35839;48.662;13.300;2023-07-09T15:40:25;97610.41;;;49.24;10.38
49947;BME280;35839;48.662;13.300;2023-07-09T15:42:56;97616.44;;;48.98;10.88
49947;BME280;35839;48.662;13.300;2023-07-09T15:45:22;97605.28;;;49.19;11.11
49947;BME280;35839;48.662;13.300;2023-07-09T15:47:50;97607.91;;;49.62;11.42
49947;BME280;35839;48.662;13.300;2023-07-09T15:50:18;97612.41;;;49.20;10.59
49947;BME280;35839;48.662;13.300;2023-07-09T15:52:45;97602.88;;;49.25;10.07
49947;BME280;35839;48.662;13.300;2023-07-09T15:55:24;97603.31;;;48.84;10.55
49947;BME280;35839;48.662;13.300;2023-07-09T15:57:53;97603.56;;;49.54;10.67
49947;BME280;35839;48.662;13.300;2023-07-09T16:00:21;97599.09;;;50.45;10.69
49947;BME280;35839;48.662;13.300;2023-07-09T16:02:49;97602.69;;;49.78;10.51
49947;BME280;35839;48.662;13.300;2023-07-09T16:05:21;97588.72;;;49.86;9.95
49947;BME280;35839;48.662;13.300;2023-07-09T16:07:49;97588.44;;;49.69;10.59
49947;BME280;35839;48.662;13.300;2023-07-09T16:10:14;97588.38;;;49.76;10.68
49947;BME280;35839;48.662;13.300;2023-07-09T16:12:40;97590.00;;;49.63;9.85
49947;BME280;35839;48.662;13.300;2023-07-09T16:15:12;97586.19;;;49.35;11.17
49947;BME280;35839;48.662;13.300;2023-07-09T16:17:37;97580.38;;;49.86;10.85
49947;BME280;35839;48.662;13.300;2023-07-09T16:20:03;97583.75;;;49.38;10.94
49947;BME280;35839;48.662;13.300;2023-07-09T16:22:30;97578.22;;;49.23;10.85
49947;BME280;35839;48.662;13.300;2023-07-09T16:24:56;97571.19;;;49.01;11.76
49947;BME280;35839;48.662;13.300;2023-07-09T16:27:21;97570.22;;;49.47;10.75
49947;BME280;35839;48.662;13.300;2023-07-09T16:29:49;97572.59;;;49.48;10.50
49947;BME280;35839;48.662;13.300;2023-07-09T16:32:15;97564.81;;;48.97;12.31
49947;BME280;35839;48.662;13.300;2023-07-09T16:34:40;97570.13;;;49.65;11.01
49947;BME280;35839;48.662;13.300;2023-07-09T16:37:16;97564.63;;;49.54;11.69
49947;BME280;35839;48.662;13.300;2023-07-09T16:39:43;97567.56;;;49.11;11.67
49947;BME280;35839;48.662;13.300;2023-07-09T16:42:10;97563.19;;;49.10;12.10
49947;BME280;35839;48.662;13.300;2023-07-09T16:44:36;97570.28;;;49.25;10.71
49947;BME280;35839;48.662;13.300;2023-07-09T16:47:04;97560.47;;;48.78;10.45
49947;BME280;35839;48.662;13.300;2023-07-09T16:49:39;97569.13;;;49.15;10.91
49947;BME280;35839;48.662;13.300;2023-07-09T16:52:14;97565.16;;;49.20;11.08
49947;BME280;35839;48.662;13.300;2023-07-09T16:54:39;97564.03;;;48.53;12.25
49947;BME280;35839;48.662;13.300;2023-07-09T16:57:12;97567.16;;;48.08;11.12
49947;BME280;35839;48.662;13.300;2023-07-09T16:59:37;97564.84;;;48.50;10.39
49947;BME280;35839;48.662;13.300;2023-07-09T17:02:31;97559.28;;;48.32;11.00
49947;BME280;35839;48.662;13.300;2023-07-09T17:05:00;97567.19;;;48.16;10.85
49947;BME280;35839;48.662;13.300;2023-07-09T17:07:26;97566.38;;;48.15;10.67
49947;BME280;35839;48.662;13.300;2023-07-09T17:09:53;97569.16;;;48.01;11.65
49947;BME280;35839;48.662;13.300;2023-07-09T17:12:18;97561.56;;;47.80;11.90
49947;BME280;35839;48.662;13.300;2023-07-09T17:14:44;97559.66;;;47.07;11.40
49947;BME280;35839;48.662;13.300;2023-07-09T17:17:15;97565.16;;;47.03;11.37
49947;BME280;35839;48.662;13.300;2023-07-09T17:19:41;97560.53;;;44.90;12.98
49947;BME280;35839;48.662;13.300;2023-07-09T17:22:16;97560.47;;;44.60;12.82
49947;BME280;35839;48.662;13.300;2023-07-09T17:24:43;97570.13;;;43.85;14.46
49947;BME280;35839;48.662;13.300;2023-07-09T17:27:09;97557.88;;;44.48;13.58
49947;BME280;35839;48.662;13.300;2023-07-09T17:29:36;97560.94;;;43.77;14.28
49947;BME280;35839;48.662;13.300;2023-07-09T17:32:01;97560.13;;;43.02;14.66
49947;BME280;35839;48.662;13.300;2023-07-09T17:34:26;97558.72;;;43.47;14.64
49947;BME280;35839;48.662;13.300;2023-07-09T17:36:52;97549.03;;;43.34;14.92
49947;BME280;35839;48.662;13.300;2023-07-09T17:39:20;97546.00;;;43.78;14.79
49947;BME280;35839;48.662;13.300;2023-07-09T17:41:46;97552.06;;;43.29;15.06
49947;BME280;35839;48.662;13.300;2023-07-09T17:44:22;97546.53;;;43.64;14.98
49947;BME280;35839;48.662;13.300;2023-07-09T17:46:49;97546.94;;;43.11;16.17
49947;BME280;35839;48.662;13.300;2023-07-09T17:49:19;97550.13;;;42.78;16.99
49947;BME280;35839;48.662;13.300;2023-07-09T17:51:45;97543.13;;;42.01;16.84
49947;BME280;35839;48.662;13.300;2023-07-09T17:54:18;97551.72;;;42.00;18.69
49947;BME280;35839;48.662;13.300;2023-07-09T17:56:46;97554.22;;;41.36;17.50
49947;BME280;35839;48.662;13.300;2023-07-09T17:59:16;97559.44;;;41.82;17.33
49947;BME280;35839;48.662;13.300;2023-07-09T18:01:43;97561.69;;;41.23;17.85
49947;BME280;35839;48.662;13.300;2023-07-09T18:04:16;97564.69;;;41.18;18.03
49947;BME280;35839;48.662;13.300;2023-07-09T18:06:46;97556.81;;;40.92;18.41
49947;BME280;35839;48.662;13.300;2023-07-09T18:09:15;97555.88;;;40.39;18.77
49947;BME280;35839;48.662;13.300;2023-07-09T18:11:41;97558.84;;;40.58;17.82
49947;BME280;35839;48.662;13.300;2023-07-09T18:14:27;97560.66;;;40.30;18.35
49947;BME280;35839;48.662;13.300;2023-07-09T18:16:54;97562.78;;;40.12;19.53
49947;BME280;35839;48.662;13.300;2023-07-09T18:19:25;97559.31;;;40.02;20.00
49947;BME280;35839;48.662;13.300;2023-07-09T18:22:06;97565.13;;;39.26;20.69